Time;durP1;ratioP1;P1;durP2;ratioP2;P2;SDS_P1;SDS_P2;PMS_P1;PMS_P2;Temp;Humidity;BMP_temperature;BMP_pressure;BME280_temperature;BME280_humidity;BME280_pressure;Samples;Min_cycle;Max_cycle;Signal;HPM_P1;HPM_P2
2023/12/19 00:01:00;;;;;;;41.55;19.92;;;;;;;7.53;100.00;102233.41;4763542;30;20067;-77
2023/12/19 00:03:26;;;;;;;39.83;19.40;;;;;;;7.53;100.00;102222.25;4773978;30;20443;-78
2023/12/19 00:05:52;;;;;;;40.13;19.50;;;;;;;7.61;100.00;102220.63;4760647;30;20493;-77
2023/12/19 00:08:17;;;;;;;40.95;18.10;;;;;;;7.54;100.00;102207.16;4759317;30;20040;-76
2023/12/19 00:10:42;;;;;;;38.78;19.23;;;;;;;7.64;100.00;102205.22;4764625;30;20043;-77
2023/12/19 00:13:08;;;;;;;35.75;17.33;;;;;;;7.53;100.00;102196.38;4764131;30;20036;-76
2023/12/19 00:15:33;;;;;;;48.45;19.80;;;;;;;7.60;100.00;102202.25;4759174;30;20394;-76
2023/12/19 00:17:58;;;;;;;38.05;18.08;;;;;;;7.46;100.00;102196.84;4756516;30;20744;-77
2023/12/19 00:20:25;;;;;;;33.90;16.58;;;;;;;7.65;100.00;102206.84;4764244;30;20378;-77
2023/12/19 00:22:50;;;;;;;35.03;17.63;;;;;;;7.63;100.00;102186.84;4764259;30;20484;-76
2023/12/19 00:25:16;;;;;;;40.53;18.95;;;;;;;7.63;100.00;102190.47;4753757;30;20189;-77
2023/12/19 00:27:41;;;;;;;36.08;19.30;;;;;;;7.49;100.00;102185.03;4763081;30;20689;-77
2023/12/19 00:30:07;;;;;;;36.72;17.73;;;;;;;7.69;100.00;102171.63;4759050;30;20036;-75
2023/12/19 00:32:32;;;;;;;34.63;17.98;;;;;;;7.57;100.00;102174.22;4761915;30;20042;-77
2023/12/19 00:34:58;;;;;;;39.92;18.77;;;;;;;7.67;100.00;102176.69;4759363;30;20043;-75
2023/12/19 00:37:23;;;;;;;34.10;16.10;;;;;;;7.69;100.00;102157.69;4759659;30;20043;-76
2023/12/19 00:39:48;;;;;;;37.53;17.58;;;;;;;7.61;100.00;102161.28;4759019;30;20143;-77
2023/12/19 00:42:14;;;;;;;33.05;17.95;;;;;;;7.61;100.00;102164.06;4758801;30;20707;-76
2023/12/19 00:44:39;;;;;;;32.25;18.13;;;;;;;7.43;100.00;102169.63;4761292;30;20094;-77
2023/12/19 00:47:04;;;;;;;35.92;17.38;;;;;;;7.59;100.00;102170.00;4763020;30;20056;-77
2023/12/19 00:49:30;;;;;;;29.40;17.33;;;;;;;7.59;100.00;102161.63;4758658;30;20036;-78
2023/12/19 00:51:55;;;;;;;31.60;16.95;;;;;;;7.54;100.00;102151.44;4762898;30;20044;-76
2023/12/19 00:54:22;;;;;;;32.25;16.58;;;;;;;7.68;100.00;102162.44;4757780;30;20072;-75
2023/12/19 00:56:47;;;;;;;33.03;17.45;;;;;;;7.63;100.00;102159.00;4766195;30;20039;-77
2023/12/19 00:59:13;;;;;;;29.40;15.00;;;;;;;7.63;100.00;102147.84;4767272;30;20060;-75
2023/12/19 01:01:38;;;;;;;26.73;15.10;;;;;;;7.63;100.00;102139.47;4758610;30;20133;-77
2023/12/19 01:04:04;;;;;;;29.08;14.95;;;;;;;7.58;100.00;102134.09;4757985;30;20043;-76
2023/12/19 01:06:29;;;;;;;30.15;15.63;;;;;;;7.50;100.00;102130.94;4765386;30;20069;-77
2023/12/19 01:08:55;;;;;;;28.48;15.82;;;;;;;7.48;100.00;102130.47;4766007;30;20058;-77
2023/12/19 01:11:20;;;;;;;29.15;15.43;;;;;;;7.54;100.00;102131.13;4766717;30;20512;-76
2023/12/19 01:13:45;;;;;;;31.05;14.63;;;;;;;7.65;100.00;102123.25;4765872;30;20043;-74
2023/12/19 01:16:12;;;;;;;29.48;15.85;;;;;;;7.59;100.00;102124.56;4775595;30;20039;-77
2023/12/19 01:18:38;;;;;;;32.13;15.73;;;;;;;7.43;100.00;102127.84;4756104;30;20509;-75
2023/12/19 01:21:03;;;;;;;29.48;15.10;;;;;;;7.36;100.00;102127.50;4755985;30;20060;-76
2023/12/19 01:23:29;;;;;;;26.67;14.35;;;;;;;7.51;100.00;102134.56;4756345;30;20100;-76
2023/12/19 01:25:54;;;;;;;26.30;14.93;;;;;;;7.63;100.00;102139.47;4763911;30;20067;-76
2023/12/19 01:28:19;;;;;;;26.75;14.90;;;;;;;7.64;100.00;102132.78;4763582;30;20114;-77
2023/12/19 01:30:45;;;;;;;26.65;14.15;;;;;;;7.56;100.00;102120.47;4766257;30;20055;-77
2023/12/19 01:33:10;;;;;;;24.98;13.45;;;;;;;7.59;100.00;102118.97;4754759;30;20657;-77
2023/12/19 01:35:36;;;;;;;24.70;13.85;;;;;;;7.49;100.00;102122.94;4762994;30;20039;-77
2023/12/19 01:38:02;;;;;;;23.65;14.23;;;;;;;7.40;100.00;102124.88;4766693;30;20040;-77
2023/12/19 01:40:31;;;;;;;26.23;12.98;;;;;;;7.58;100.00;102109.00;4761150;30;20048;-77
2023/12/19 01:43:00;;;;;;;25.42;13.70;;;;;;;7.47;100.00;102103.75;4763237;30;20413;-75
2023/12/19 01:45:27;;;;;;;22.70;13.45;;;;;;;7.60;100.00;102117.84;4763010;30;20032;-77
2023/12/19 01:47:53;;;;;;;23.67;11.98;;;;;;;7.53;100.00;102110.81;4761476;30;20088;-78
2023/12/19 01:50:19;;;;;;;25.58;13.77;;;;;;;7.54;100.00;102111.63;4764407;30;20612;-78
2023/12/19 01:52:48;;;;;;;26.60;13.90;;;;;;;7.51;100.00;102107.53;4759390;30;20069;-78
2023/12/19 01:55:14;;;;;;;24.48;12.68;;;;;;;7.56;100.00;102097.38;4769128;30;20080;-77
2023/12/19 01:57:40;;;;;;;24.38;12.40;;;;;;;7.51;100.00;102101.94;4761634;30;20379;-78
2023/12/19 02:00:07;;;;;;;27.65;13.07;;;;;;;7.50;100.00;102088.34;4767311;30;20043;-76
2023/12/19 02:02:32;;;;;;;20.00;12.48;;;;;;;7.61;100.00;102088.84;4763759;30;20144;-77
2023/12/19 02:04:59;;;;;;;22.80;12.65;;;;;;;7.63;100.00;102092.09;4762177;30;20035;-78
2023/12/19 02:07:24;;;;;;;23.55;13.10;;;;;;;7.43;100.00;102082.44;4761386;30;20047;-76
2023/12/19 02:09:52;;;;;;;23.15;12.88;;;;;;;7.45;100.00;102094.09;4781100;29;20104;-77
2023/12/19 02:12:17;;;;;;;24.95;13.50;;;;;;;7.46;100.00;102081.78;4761018;30;20043;-75
2023/12/19 02:14:44;;;;;;;22.52;13.07;;;;;;;7.47;100.00;102067.53;4768843;30;20027;-78
2023/12/19 02:17:11;;;;;;;21.15;13.05;;;;;;;7.38;100.00;102071.44;4760717;29;20071;-75
2023/12/19 02:19:47;;;;;;;22.50;13.43;;;;;;;7.39;100.00;102076.69;4759674;30;20040;-75
2023/12/19 02:22:13;;;;;;;24.67;13.32;;;;;;;7.41;100.00;102084.75;4766650;30;20104;-78
2023/12/19 02:24:38;;;;;;;24.02;11.93;;;;;;;7.42;100.00;102075.22;4775753;29;20492;-77
2023/12/19 02:27:05;;;;;;;25.90;13.50;;;;;;;7.58;100.00;102061.63;4763007;30;20062;-78
2023/12/19 02:29:30;;;;;;;25.75;13.85;;;;;;;7.46;100.00;102049.19;4764246;30;20040;-77
2023/12/19 02:31:57;;;;;;;23.70;13.20;;;;;;;7.39;100.00;102061.97;4758727;30;20095;-77
2023/12/19 02:34:22;;;;;;;22.48;13.07;;;;;;;7.31;100.00;102049.66;4766608;30;20776;-78
2023/12/19 02:36:48;;;;;;;24.10;12.70;;;;;;;7.28;100.00;102041.97;4761824;30;20040;-77
2023/12/19 02:39:13;;;;;;;25.88;13.95;;;;;;;7.29;100.00;102035.25;4763607;30;20032;-77
2023/12/19 02:41:39;;;;;;;23.48;12.57;;;;;;;7.42;100.00;102039.00;4763857;30;20530;-77
2023/12/19 02:44:04;;;;;;;24.92;12.73;;;;;;;7.35;100.00;102039.50;4765381;30;20043;-78
2023/12/19 02:46:29;;;;;;;21.77;12.68;;;;;;;7.36;100.00;102032.81;4768702;30;20045;-76
2023/12/19 02:48:55;;;;;;;26.42;13.40;;;;;;;7.34;100.00;102032.31;4762928;30;20072;-77
2023/12/19 02:51:20;;;;;;;23.60;11.98;;;;;;;7.38;100.00;102024.09;4755848;30;20043;-77
2023/12/19 02:53:46;;;;;;;21.90;12.98;;;;;;;7.45;100.00;102022.47;4767601;30;20050;-78
2023/12/19 02:56:11;;;;;;;24.23;12.50;;;;;;;7.46;100.00;102018.56;4760277;30;20125;-77
2023/12/19 02:58:37;;;;;;;24.27;13.40;;;;;;;7.41;100.00;102007.56;4759985;30;20032;-77
2023/12/19 03:01:06;;;;;;;26.70;13.93;;;;;;;7.46;100.00;101993.47;4760133;30;20421;-77
2023/12/19 03:03:31;;;;;;;23.98;13.00;;;;;;;7.45;100.00;101986.25;4760743;30;20482;-77
2023/12/19 03:05:57;;;;;;;23.70;12.98;;;;;;;7.43;100.00;101979.38;4758745;30;20035;-77
2023/12/19 03:08:22;;;;;;;21.13;12.68;;;;;;;7.36;100.00;101977.09;4760397;30;20040;-77
2023/12/19 03:10:48;;;;;;;26.00;13.82;;;;;;;7.43;100.00;101980.19;4776423;29;20767;-77
2023/12/19 03:13:13;;;;;;;28.85;14.98;;;;;;;7.42;100.00;101986.94;4761770;30;20035;-78
2023/12/19 03:15:38;;;;;;;25.45;12.15;;;;;;;7.42;100.00;101975.78;4765919;30;20459;-78
2023/12/19 03:18:04;;;;;;;24.20;13.05;;;;;;;7.48;100.00;101974.47;4764286;30;20044;-78
2023/12/19 03:20:29;;;;;;;29.10;15.00;;;;;;;7.43;100.00;101974.63;4766235;30;20509;-78
2023/12/19 03:22:54;;;;;;;27.08;14.73;;;;;;;7.44;100.00;101976.28;4763244;30;20107;-78
2023/12/19 03:25:20;;;;;;;28.60;14.27;;;;;;;7.42;100.00;101961.84;4778789;30;20039;-77
2023/12/19 03:27:45;;;;;;;27.60;13.93;;;;;;;7.35;100.00;101952.34;4759926;30;20066;-77
2023/12/19 03:30:11;;;;;;;27.90;14.23;;;;;;;7.37;100.00;101952.84;4761889;30;20498;-76
2023/12/19 03:32:37;;;;;;;27.55;14.60;;;;;;;7.33;100.00;101939.56;4759204;30;20082;-76
2023/12/19 03:35:02;;;;;;;28.70;14.70;;;;;;;7.41;100.00;101945.47;4762760;30;20044;-78
2023/12/19 03:37:27;;;;;;;32.50;15.95;;;;;;;7.36;100.00;101938.09;4758178;30;20386;-78
2023/12/19 03:39:53;;;;;;;26.98;14.20;;;;;;;7.43;100.00;101932.84;4757730;30;20402;-76
2023/12/19 03:42:18;;;;;;;26.98;15.05;;;;;;;7.40;100.00;101927.94;4761193;30;20098;-77
2023/12/19 03:44:44;;;;;;;27.15;14.93;;;;;;;7.37;100.00;101925.78;4764793;30;20036;-78
2023/12/19 03:47:12;;;;;;;30.85;15.30;;;;;;;7.40;100.00;101914.00;4759195;30;20066;-78
2023/12/19 03:49:38;;;;;;;28.02;14.75;;;;;;;7.48;100.00;101915.13;4772938;29;20382;-78
2023/12/19 03:52:03;;;;;;;27.77;14.02;;;;;;;7.47;100.00;101919.88;4775100;30;20038;-78
2023/12/19 03:54:29;;;;;;;28.88;14.73;;;;;;;7.45;100.00;101911.03;4761295;30;20379;-77
2023/12/19 03:56:55;;;;;;;30.83;14.95;;;;;;;7.48;100.00;101906.75;4762060;30;20044;-76
2023/12/19 03:59:20;;;;;;;31.00;16.00;;;;;;;7.48;100.00;101893.69;4760742;30;20433;-76
2023/12/19 04:01:46;;;;;;;29.58;14.00;;;;;;;7.49;100.00;101891.69;4756598;30;20409;-78
2023/12/19 04:04:12;;;;;;;33.17;15.20;;;;;;;7.46;100.00;101887.63;4764814;30;20159;-78
2023/12/19 04:06:43;;;;;;;34.63;15.88;;;;;;;7.42;100.00;101883.84;4772610;29;20035;-77
2023/12/19 04:09:08;;;;;;;27.08;14.63;;;;;;;7.49;100.00;101863.84;4764608;30;20035;-75
2023/12/19 04:11:34;;;;;;;27.23;14.68;;;;;;;7.45;100.00;101862.88;4760415;30;20028;-77
2023/12/19 04:13:59;;;;;;;27.75;15.45;;;;;;;7.50;100.00;101851.53;4760838;30;20063;-77
2023/12/19 04:16:24;;;;;;;26.27;15.73;;;;;;;7.43;100.00;101851.25;4757356;30;20032;-78
2023/12/19 04:18:50;;;;;;;31.35;16.67;;;;;;;7.52;100.00;101854.81;4761321;30;20032;-76
2023/12/19 04:21:15;;;;;;;26.58;14.80;;;;;;;7.48;100.00;101857.47;4764716;30;20071;-76
2023/12/19 04:23:40;;;;;;;31.52;16.13;;;;;;;7.47;100.00;101861.38;4758809;30;20063;-77
2023/12/19 04:26:06;;;;;;;32.92;17.05;;;;;;;7.46;100.00;101861.69;4764732;30;20035;-77
2023/12/19 04:28:31;;;;;;;29.75;15.88;;;;;;;7.40;100.00;101849.09;4761701;30;20043;-78
2023/12/19 04:30:57;;;;;;;33.75;16.55;;;;;;;7.42;100.00;101846.81;4761855;30;20039;-77
2023/12/19 04:33:22;;;;;;;30.52;15.55;;;;;;;7.48;100.00;101846.31;4755215;30;20150;-77
2023/12/19 04:35:47;;;;;;;30.52;15.30;;;;;;;7.53;100.00;101857.25;4762248;30;20035;-78
2023/12/19 04:38:14;;;;;;;28.52;15.25;;;;;;;7.54;100.00;101853.31;4756768;30;20059;-78
2023/12/19 04:40:39;;;;;;;26.52;14.18;;;;;;;7.42;100.00;101842.06;4756022;30;20070;-77
2023/12/19 04:43:05;;;;;;;32.67;15.75;;;;;;;7.51;100.00;101848.41;4760609;30;20552;-78
2023/12/19 04:45:30;;;;;;;28.52;15.23;;;;;;;7.34;100.00;101834.56;4761579;30;20084;-75
2023/12/19 04:47:55;;;;;;;26.10;13.98;;;;;;;7.47;100.00;101833.53;4761493;30;20055;-77
2023/12/19 04:50:21;;;;;;;29.23;15.27;;;;;;;7.46;100.00;101831.91;4756557;30;20039;-77
2023/12/19 04:52:46;;;;;;;26.27;14.23;;;;;;;7.36;100.00;101832.25;4762646;30;20055;-76
2023/12/19 04:55:12;;;;;;;24.35;13.10;;;;;;;7.40;100.00;101826.81;4778263;30;20481;-77
2023/12/19 04:57:37;;;;;;;23.30;13.57;;;;;;;7.53;100.00;101826.63;4760313;30;20177;-77
2023/12/19 05:00:04;;;;;;;25.23;13.95;;;;;;;7.52;100.00;101819.41;4762567;30;20108;-76
2023/12/19 05:02:29;;;;;;;23.95;11.80;;;;;;;7.53;100.00;101823.84;4775543;30;20112;-77
2023/12/19 05:04:55;;;;;;;24.85;11.55;;;;;;;7.53;100.00;101825.81;4761647;30;20401;-77
2023/12/19 05:07:20;;;;;;;22.38;12.52;;;;;;;7.50;100.00;101816.13;4775765;29;20047;-77
2023/12/19 05:09:46;;;;;;;19.85;11.82;;;;;;;7.52;100.00;101822.19;4760941;30;20036;-76
2023/12/19 05:12:11;;;;;;;20.15;9.75;;;;;;;7.48;100.00;101824.03;4762645;30;20091;-77
2023/12/19 05:14:37;;;;;;;17.58;10.63;;;;;;;7.50;100.00;101827.28;4759854;30;20031;-77
2023/12/19 05:17:03;;;;;;;19.15;10.50;;;;;;;7.54;100.00;101822.66;4758768;30;20075;-77
2023/12/19 05:19:29;;;;;;;18.65;11.30;;;;;;;7.53;100.00;101815.47;4763312;30;20042;-77
2023/12/19 05:21:55;;;;;;;17.77;9.82;;;;;;;7.52;100.00;101819.41;4763075;30;20115;-77
2023/12/19 05:24:20;;;;;;;14.93;9.25;;;;;;;7.47;100.00;101800.09;4761273;30;20047;-77
2023/12/19 05:26:46;;;;;;;17.88;8.63;;;;;;;7.50;100.00;101804.97;4753338;30;20075;-76
2023/12/19 05:29:11;;;;;;;17.00;9.65;;;;;;;7.48;100.00;101798.97;4761463;30;20398;-77
2023/12/19 05:31:36;;;;;;;13.25;8.60;;;;;;;7.52;100.00;101801.88;4767119;30;20047;-77
2023/12/19 05:34:02;;;;;;;15.63;8.45;;;;;;;7.40;100.00;101788.66;4760115;30;20065;-75
2023/12/19 05:36:27;;;;;;;16.92;8.90;;;;;;;7.48;100.00;101793.38;4755623;30;20417;-77
2023/12/19 05:38:53;;;;;;;14.20;8.07;;;;;;;7.47;100.00;101788.94;4763997;30;20035;-78
2023/12/19 05:41:18;;;;;;;16.38;9.63;;;;;;;7.54;100.00;101782.84;4760122;30;20047;-77
2023/12/19 05:43:43;;;;;;;16.23;8.02;;;;;;;7.53;100.00;101784.03;4761199;30;20496;-78
2023/12/19 05:46:09;;;;;;;15.85;9.05;;;;;;;7.48;100.00;101790.59;4761272;30;20032;-77
2023/12/19 05:48:34;;;;;;;13.52;7.78;;;;;;;7.56;100.00;101802.03;4757909;30;20084;-77
2023/12/19 05:51:00;;;;;;;13.57;8.55;;;;;;;7.62;100.00;101793.13;4759221;30;20410;-77
2023/12/19 05:53:26;;;;;;;12.45;6.60;;;;;;;7.58;100.00;101788.59;4760352;30;20818;-76
2023/12/19 05:55:51;;;;;;;13.02;8.60;;;;;;;7.60;100.00;101786.28;4766343;30;20055;-77
2023/12/19 05:58:17;;;;;;;15.02;7.38;;;;;;;7.51;100.00;101787.13;4764410;30;20759;-78
2023/12/19 06:00:44;;;;;;;12.27;7.35;;;;;;;7.57;100.00;101784.97;4765190;30;20064;-78
2023/12/19 06:03:10;;;;;;;13.70;8.40;;;;;;;7.63;100.00;101791.16;4760233;30;20044;-77
2023/12/19 06:05:38;;;;;;;13.23;8.05;;;;;;;7.62;100.00;101786.75;4759669;30;20038;-78
2023/12/19 06:08:06;;;;;;;12.32;6.75;;;;;;;7.56;100.00;101779.75;4761246;30;20040;-77
2023/12/19 06:10:31;;;;;;;11.43;6.63;;;;;;;7.65;100.00;101783.28;4760676;30;20047;-75
2023/12/19 06:12:56;;;;;;;12.95;7.43;;;;;;;7.62;100.00;101778.41;4760747;30;20032;-75
2023/12/19 06:15:22;;;;;;;10.90;6.57;;;;;;;7.61;100.00;101765.59;4759900;30;20039;-78
2023/12/19 06:17:48;;;;;;;9.90;6.13;;;;;;;7.59;100.00;101757.59;4754539;30;20113;-77
2023/12/19 06:20:13;;;;;;;11.38;7.43;;;;;;;7.59;100.00;101765.97;4761991;30;20126;-75
2023/12/19 06:22:41;;;;;;;10.65;5.93;;;;;;;7.56;100.00;101754.66;4763891;30;20043;-77
2023/12/19 06:25:07;;;;;;;12.23;6.43;;;;;;;7.61;100.00;101757.25;4764103;30;20096;-77
2023/12/19 06:27:33;;;;;;;10.50;5.10;;;;;;;7.61;100.00;101744.16;4754119;29;20031;-77
2023/12/19 06:29:58;;;;;;;8.85;5.30;;;;;;;7.59;100.00;101745.63;4774024;29;20524;-76
2023/12/19 06:32:26;;;;;;;9.65;6.03;;;;;;;7.60;100.00;101742.50;4753059;30;20036;-77
2023/12/19 06:34:51;;;;;;;11.10;6.22;;;;;;;7.59;100.00;101737.25;4755908;30;20051;-76
2023/12/19 06:37:18;;;;;;;10.55;6.25;;;;;;;7.69;100.00;101736.88;4754577;30;20101;-77
2023/12/19 06:39:43;;;;;;;9.20;5.38;;;;;;;7.63;100.00;101729.88;4758205;30;20118;-77
2023/12/19 06:42:09;;;;;;;9.27;5.32;;;;;;;7.67;100.00;101731.66;4763667;29;20115;-74
2023/12/19 06:44:35;;;;;;;10.80;5.28;;;;;;;7.67;100.00;101730.81;4762576;30;20027;-78
2023/12/19 06:47:00;;;;;;;8.50;5.35;;;;;;;7.71;100.00;101732.59;4758297;30;20071;-77
2023/12/19 06:49:26;;;;;;;13.52;6.47;;;;;;;7.75;100.00;101732.75;4775000;29;20587;-78
2023/12/19 06:51:52;;;;;;;9.02;5.63;;;;;;;7.65;100.00;101722.81;4762485;30;20036;-78
2023/12/19 06:54:18;;;;;;;10.00;5.63;;;;;;;7.71;100.00;101724.22;4773256;29;20078;-78
2023/12/19 06:56:43;;;;;;;9.30;6.03;;;;;;;7.73;100.00;101723.91;4760230;30;20031;-77
2023/12/19 06:59:09;;;;;;;7.38;4.75;;;;;;;7.76;100.00;101717.66;4763516;29;20039;-78
2023/12/19 07:01:35;;;;;;;9.80;5.82;;;;;;;7.75;100.00;101713.25;4763295;30;20036;-78
2023/12/19 07:04:01;;;;;;;8.95;5.63;;;;;;;7.77;100.00;101710.94;4759082;30;20112;-78
2023/12/19 07:06:26;;;;;;;9.35;5.65;;;;;;;7.78;100.00;101703.38;4765851;30;20515;-78
2023/12/19 07:08:52;;;;;;;8.32;5.15;;;;;;;7.79;100.00;101694.69;4758641;30;20031;-76
2023/12/19 07:11:21;;;;;;;9.15;5.82;;;;;;;7.79;100.00;101689.09;4764054;29;20031;-74
2023/12/19 07:13:46;;;;;;;11.00;6.20;;;;;;;7.82;100.00;101693.19;4758177;30;20844;-77
2023/12/19 07:16:17;;;;;;;9.95;6.15;;;;;;;7.83;100.00;101690.06;4762225;30;20052;-75
2023/12/19 07:18:43;;;;;;;9.52;6.00;;;;;;;8.12;100.00;101693.94;4759762;30;20493;-77
2023/12/19 07:21:25;;;;;;;13.98;6.47;;;;;;;8.13;100.00;101688.00;4777433;29;20038;-77
2023/12/19 07:23:52;;;;;;;10.75;6.20;;;;;;;7.98;100.00;101691.41;4764590;30;20386;-77
2023/12/19 07:26:26;;;;;;;9.55;6.18;;;;;;;7.96;100.00;101699.31;4762013;30;20465;-78
2023/12/19 07:28:53;;;;;;;10.25;5.55;;;;;;;8.88;100.00;101686.31;4762914;30;20560;-77
2023/12/19 07:31:29;;;;;;;11.45;6.88;;;;;;;8.14;100.00;101686.06;4759161;30;20519;-77
2023/12/19 07:33:57;;;;;;;11.05;7.10;;;;;;;8.07;100.00;101691.34;4759974;30;20046;-78
2023/12/19 07:36:23;;;;;;;13.25;6.97;;;;;;;8.09;100.00;101683.47;4756006;30;20043;-77
2023/12/19 07:38:50;;;;;;;11.98;7.00;;;;;;;8.06;100.00;101682.19;4758300;30;20044;-77
2023/12/19 07:41:15;;;;;;;10.88;6.38;;;;;;;8.05;100.00;101688.91;4757763;30;20565;-78
2023/12/19 07:43:40;;;;;;;10.82;6.75;;;;;;;8.05;100.00;101682.50;4774853;30;20135;-77
2023/12/19 07:46:06;;;;;;;12.23;6.80;;;;;;;8.04;100.00;101683.69;4758132;30;20024;-77
2023/12/19 07:48:32;;;;;;;12.05;6.47;;;;;;;8.01;100.00;101676.81;4759862;30;20079;-78
2023/12/19 07:50:58;;;;;;;11.25;6.88;;;;;;;8.05;100.00;101676.94;4761964;30;20043;-76
2023/12/19 07:53:27;;;;;;;11.65;7.07;;;;;;;7.99;100.00;101673.56;4758616;30;20543;-76
2023/12/19 07:55:53;;;;;;;11.55;6.82;;;;;;;8.05;100.00;101665.78;4761722;30;20075;-76
2023/12/19 07:58:19;;;;;;;12.75;7.32;;;;;;;8.05;100.00;101668.56;4763390;30;20144;-76
2023/12/19 08:00:47;;;;;;;12.82;8.35;;;;;;;8.05;100.00;101674.97;4774239;29;20568;-77
2023/12/19 08:03:14;;;;;;;14.85;8.38;;;;;;;8.07;100.00;101677.41;4761245;30;20040;-76
2023/12/19 08:05:44;;;;;;;15.75;8.65;;;;;;;8.06;100.00;101671.03;4763847;30;20039;-75
2023/12/19 08:08:10;;;;;;;15.18;8.10;;;;;;;8.09;100.00;101675.09;4765163;30;20031;-75
2023/12/19 08:10:35;;;;;;;13.80;8.18;;;;;;;8.11;100.00;101668.00;4763042;30;20045;-76
2023/12/19 08:13:00;;;;;;;15.90;8.75;;;;;;;8.10;100.00;101671.16;4760115;30;20039;-76
2023/12/19 08:15:26;;;;;;;15.02;8.05;;;;;;;8.10;100.00;101662.78;4773208;29;20023;-76
2023/12/19 08:17:51;;;;;;;14.43;7.78;;;;;;;8.11;100.00;101661.63;4755333;30;20040;-75
2023/12/19 08:20:16;;;;;;;14.07;8.00;;;;;;;8.20;100.00;101665.16;4764388;30;20214;-76
2023/12/19 08:22:42;;;;;;;12.65;7.50;;;;;;;8.17;100.00;101662.25;4762319;30;20036;-76
2023/12/19 08:25:08;;;;;;;12.13;8.30;;;;;;;8.15;100.00;101651.41;4773876;29;20028;-76
2023/12/19 08:27:35;;;;;;;14.38;7.93;;;;;;;8.12;100.00;101647.34;4756836;30;20036;-75
2023/12/19 08:30:04;;;;;;;14.45;7.65;;;;;;;8.16;100.00;101653.06;4773066;29;20485;-78
2023/12/19 08:32:30;;;;;;;13.73;8.38;;;;;;;8.17;100.00;101640.75;4761177;30;20043;-76
2023/12/19 08:34:58;;;;;;;13.70;8.75;;;;;;;8.23;100.00;101649.72;4753755;30;20097;-77
2023/12/19 08:37:24;;;;;;;14.30;8.82;;;;;;;8.21;100.00;101643.66;4762832;30;20063;-75
2023/12/19 08:39:54;;;;;;;19.25;9.63;;;;;;;8.22;100.00;101636.91;4760638;30;20053;-75
2023/12/19 08:42:20;;;;;;;17.02;9.50;;;;;;;8.23;100.00;101633.78;4759905;30;20035;-75
2023/12/19 08:44:45;;;;;;;15.57;8.82;;;;;;;8.24;100.00;101643.81;4771760;29;20041;-75
2023/12/19 08:47:11;;;;;;;15.88;8.43;;;;;;;8.22;100.00;101626.59;4775823;29;20196;-75
2023/12/19 08:49:38;;;;;;;16.10;8.82;;;;;;;8.21;100.00;101621.34;4760591;30;20550;-75
2023/12/19 08:52:04;;;;;;;13.07;8.30;;;;;;;8.28;100.00;101627.97;4758887;30;20056;-75
2023/12/19 08:54:29;;;;;;;19.25;9.40;;;;;;;8.28;100.00;101621.59;4758610;30;20125;-74
2023/12/19 08:56:54;;;;;;;19.27;10.32;;;;;;;8.26;100.00;101626.69;4764590;30;20054;-75
2023/12/19 08:59:19;;;;;;;16.83;8.95;;;;;;;8.28;100.00;101614.03;4760908;30;20034;-75
2023/12/19 09:01:45;;;;;;;18.02;9.70;;;;;;;8.38;100.00;101623.16;4760711;30;20471;-75
2023/12/19 09:04:11;;;;;;;19.35;10.95;;;;;;;8.38;100.00;101625.94;4777894;29;20040;-75
2023/12/19 09:06:36;;;;;;;19.80;11.13;;;;;;;8.33;100.00;101630.56;4756053;30;20405;-75
2023/12/19 09:09:01;;;;;;;23.55;11.52;;;;;;;8.32;100.00;101622.53;4757411;30;20425;-75
2023/12/19 09:11:27;;;;;;;24.48;12.98;;;;;;;8.33;100.00;101619.41;4757348;30;20035;-75
2023/12/19 09:13:52;;;;;;;20.95;11.73;;;;;;;8.40;100.00;101624.44;4758721;30;20742;-75
2023/12/19 09:16:17;;;;;;;21.60;11.95;;;;;;;8.35;100.00;101622.69;4755029;30;20063;-75
2023/12/19 09:18:43;;;;;;;22.52;12.70;;;;;;;8.35;100.00;101625.47;4758593;30;20035;-75
2023/12/19 09:21:09;;;;;;;21.25;12.63;;;;;;;8.38;100.00;101620.34;4756856;30;20130;-74
2023/12/19 09:23:34;;;;;;;19.58;12.35;;;;;;;8.42;100.00;101624.94;4756860;30;20431;-75
2023/12/19 09:25:59;;;;;;;22.05;11.98;;;;;;;8.43;100.00;101618.22;4754878;30;20032;-74
2023/12/19 09:28:29;;;;;;;21.75;12.32;;;;;;;8.41;100.00;101619.69;4759925;30;20130;-74
2023/12/19 09:30:58;;;;;;;20.33;12.00;;;;;;;8.39;100.00;101621.97;4757358;30;20031;-74
2023/12/19 09:33:23;;;;;;;19.63;11.27;;;;;;;8.44;100.00;101619.00;4752739;30;20042;-74
2023/12/19 09:35:49;;;;;;;25.33;12.55;;;;;;;8.41;100.00;101608.53;4753151;30;20135;-75
2023/12/19 09:38:14;;;;;;;21.95;13.50;;;;;;;8.42;100.00;101610.16;4753637;30;20035;-76
2023/12/19 09:40:40;;;;;;;19.23;11.88;;;;;;;8.44;100.00;101613.44;4758171;30;20165;-75
2023/12/19 09:43:07;;;;;;;23.77;12.75;;;;;;;8.41;100.00;101598.22;4757309;30;20092;-75
2023/12/19 09:45:32;;;;;;;21.88;12.18;;;;;;;8.45;100.00;101598.31;4757940;30;20088;-75
2023/12/19 09:48:02;;;;;;;20.08;12.65;;;;;;;8.42;100.00;101601.81;4749693;30;20056;-75
2023/12/19 09:50:28;;;;;;;21.88;12.30;;;;;;;8.49;100.00;101599.25;4757040;30;20036;-75
2023/12/19 09:52:57;;;;;;;20.23;11.55;;;;;;;8.46;100.00;101591.59;4753763;30;20117;-75
2023/12/19 09:55:26;;;;;;;20.30;12.15;;;;;;;8.48;100.00;101581.69;4759225;30;20031;-76
2023/12/19 09:57:54;;;;;;;23.13;12.00;;;;;;;8.44;100.00;101574.38;4754029;30;20032;-75
2023/12/19 10:00:21;;;;;;;21.38;13.07;;;;;;;8.43;100.00;101575.53;4758331;30;20404;-75
2023/12/19 10:02:46;;;;;;;23.98;12.80;;;;;;;8.44;100.00;101571.59;4758623;30;20515;-75
2023/12/19 10:05:12;;;;;;;19.38;12.05;;;;;;;8.49;100.00;101565.75;4755293;30;20055;-75
2023/12/19 10:07:37;;;;;;;21.42;12.15;;;;;;;8.44;100.00;101566.81;4758024;30;20066;-75
2023/12/19 10:10:06;;;;;;;21.15;11.55;;;;;;;8.43;100.00;101567.16;4756407;30;20048;-75
2023/12/19 10:12:32;;;;;;;21.20;12.35;;;;;;;8.48;100.00;101559.38;4752079;30;20066;-75
2023/12/19 10:15:13;;;;;;;25.92;13.02;;;;;;;8.50;100.00;101561.81;4760423;29;20039;-75
2023/12/19 10:17:38;;;;;;;23.08;13.88;;;;;;;8.49;100.00;101551.81;4766165;30;20032;-75
2023/12/19 10:20:11;;;;;;;24.60;11.82;;;;;;;8.45;100.00;101562.03;4762520;30;20039;-74
2023/12/19 10:22:37;;;;;;;18.90;11.85;;;;;;;8.45;100.00;101556.47;4765316;30;20462;-74
2023/12/19 10:25:03;;;;;;;17.45;10.43;;;;;;;8.48;100.00;101550.19;4782005;29;20118;-74
2023/12/19 10:27:29;;;;;;;21.08;12.07;;;;;;;8.46;100.00;101544.97;4769000;30;20076;-74
2023/12/19 10:30:14;;;;;;;23.48;13.25;;;;;;;8.46;100.00;101533.81;4763830;30;20031;-75
2023/12/19 10:32:40;;;;;;;21.75;12.20;;;;;;;8.45;100.00;101536.94;4755772;30;20506;-75
2023/12/19 10:35:06;;;;;;;20.35;12.05;;;;;;;8.47;100.00;101537.41;4758599;30;20100;-75
2023/12/19 10:37:33;;;;;;;24.70;13.13;;;;;;;8.49;100.00;101535.06;4766138;30;20167;-75
2023/12/19 10:40:12;;;;;;;21.25;11.38;;;;;;;8.51;100.00;101539.13;4757403;30;20043;-75
2023/12/19 10:42:37;;;;;;;19.52;11.23;;;;;;;8.51;100.00;101524.38;4761395;30;20036;-75
2023/12/19 10:45:05;;;;;;;19.30;11.75;;;;;;;8.48;100.00;101525.91;4760537;30;20039;-75
2023/12/19 10:47:30;;;;;;;20.50;12.80;;;;;;;8.52;100.00;101523.22;4759012;30;20127;-76
2023/12/19 10:49:55;;;;;;;19.88;12.13;;;;;;;8.50;100.00;101520.78;4764270;30;20123;-76
2023/12/19 10:52:22;;;;;;;19.65;11.55;;;;;;;8.52;100.00;101514.88;4760003;30;20067;-74
2023/12/19 10:54:55;;;;;;;19.23;12.10;;;;;;;8.48;100.00;101514.75;4754769;30;20401;-75
2023/12/19 10:57:23;;;;;;;22.80;12.05;;;;;;;8.49;100.00;101518.34;4757670;30;20048;-76
2023/12/19 11:00:09;;;;;;;18.38;10.70;;;;;;;8.45;100.00;101522.97;4773926;29;20858;-76
2023/12/19 11:02:46;;;;;;;19.05;11.52;;;;;;;8.49;100.00;101516.34;4758722;30;20047;-75
2023/12/19 11:05:29;;;;;;;20.85;11.73;;;;;;;8.49;100.00;101504.38;4761953;30;20116;-76
2023/12/19 11:08:01;;;;;;;20.80;11.93;;;;;;;8.48;100.00;101499.97;4757022;30;20035;-76